Time;durP1;ratioP1;P1;durP2;ratioP2;P2;SDS_P1;SDS_P2;PMS_P1;PMS_P2;Temp;Humidity;BMP_temperature;BMP_pressure;BME280_temperature;BME280_humidity;BME280_pressure;Samples;Min_cycle;Max_cycle;Signal;HPM_P1;HPM_P2
2022/02/21 00:01:44;;;;;;;28.25;12.18;;;;;;;1.20;65.17;100961.19;1734690;82;25813;-57
2022/02/21 00:04:11;;;;;;;20.90;11.45;;;;;;;1.20;65.28;100962.95;1734869;82;25658;-57
2022/02/21 00:06:38;;;;;;;28.15;11.55;;;;;;;1.21;65.04;100962.87;1735319;82;27548;-57
2022/02/21 00:09:05;;;;;;;22.32;11.05;;;;;;;1.22;64.96;100961.95;1734936;82;25633;-58
2022/02/21 00:11:33;;;;;;;20.55;11.73;;;;;;;1.19;64.59;100956.81;1734904;82;25670;-57
2022/02/21 00:14:00;;;;;;;22.05;10.85;;;;;;;1.15;64.57;100951.72;1735050;82;26849;-57
2022/02/21 00:16:26;;;;;;;23.73;11.22;;;;;;;1.13;64.39;100956.23;1735047;82;25466;-58
2022/02/21 00:18:54;;;;;;;20.68;10.85;;;;;;;1.05;64.49;100956.12;1734952;82;27453;-57
2022/02/21 00:21:21;;;;;;;15.10;9.20;;;;;;;0.98;64.59;100955.14;1716351;82;25786;-57
2022/02/21 00:23:47;;;;;;;17.42;9.55;;;;;;;0.95;64.55;100953.48;1710223;83;25838;-57
2022/02/21 00:26:15;;;;;;;20.95;9.35;;;;;;;0.92;64.92;100942.58;1711600;81;25794;-57
2022/02/21 00:28:42;;;;;;;19.45;9.93;;;;;;;0.87;64.69;100952.50;1710405;83;26503;-57
2022/02/21 00:31:11;;;;;;;17.65;10.05;;;;;;;0.89;64.91;100932.11;1710557;83;27468;-57
2022/02/21 00:33:38;;;;;;;19.45;10.63;;;;;;;0.88;64.88;100934.36;1709870;83;25796;-58
2022/02/21 00:36:06;;;;;;;21.42;10.50;;;;;;;0.90;65.02;100931.19;1710602;83;25780;-57
2022/02/21 00:38:33;;;;;;;19.80;9.80;;;;;;;0.90;64.99;100935.16;1710375;83;26568;-57
2022/02/21 00:41:02;;;;;;;20.68;10.15;;;;;;;0.87;64.84;100933.12;1710674;83;25792;-57
2022/02/21 00:43:30;;;;;;;24.18;11.63;;;;;;;0.87;64.80;100937.09;1710026;83;28162;-57
2022/02/21 00:45:57;;;;;;;16.87;9.55;;;;;;;0.83;64.57;100940.34;1756373;80;25511;-58
2022/02/21 00:48:24;;;;;;;20.45;10.32;;;;;;;0.82;64.44;100941.27;1771022;81;25717;-57
2022/02/21 00:50:51;;;;;;;22.77;11.68;;;;;;;0.77;64.46;100940.16;1771355;81;26205;-57
2022/02/21 00:53:19;;;;;;;29.48;11.40;;;;;;;0.75;64.49;100941.16;1770935;80;25703;-57
2022/02/21 00:55:45;;;;;;;25.68;11.63;;;;;;;0.74;64.68;100933.66;1771327;81;27470;-57
2022/02/21 00:58:12;;;;;;;20.82;10.70;;;;;;;0.75;64.71;100935.86;1771241;81;25840;-57
2022/02/21 01:00:39;;;;;;;22.32;10.50;;;;;;;0.78;64.92;100937.02;1771397;80;26887;-57
2022/02/21 01:03:06;;;;;;;16.90;10.15;;;;;;;0.80;64.96;100935.66;1771187;81;25812;-57
2022/02/21 01:05:34;;;;;;;22.80;11.57;;;;;;;0.75;64.95;100939.36;1771528;81;25626;-57
2022/02/21 01:08:01;;;;;;;28.25;11.18;;;;;;;0.75;64.90;100931.41;1771287;81;28548;-57
2022/02/21 01:10:29;;;;;;;23.75;10.60;;;;;;;0.75;64.76;100919.97;1771271;81;25748;-57
2022/02/21 01:12:57;;;;;;;25.48;11.20;;;;;;;0.74;64.79;100923.06;1741165;81;25723;-57
2022/02/21 01:15:24;;;;;;;24.30;10.75;;;;;;;0.71;64.87;100921.91;1724758;82;25810;-57
2022/02/21 01:17:51;;;;;;;17.60;10.05;;;;;;;0.68;64.74;100928.65;1740228;82;25841;-57
2022/02/21 01:20:18;;;;;;;23.98;10.65;;;;;;;0.67;64.70;100924.76;1740179;82;27471;-57
2022/02/21 01:22:44;;;;;;;26.52;11.00;;;;;;;0.67;64.70;100928.73;1740090;82;25794;-57
2022/02/21 01:25:11;;;;;;;23.15;10.98;;;;;;;0.64;64.80;100920.43;1747955;81;25663;-57
2022/02/21 01:27:38;;;;;;;22.30;10.05;;;;;;;0.61;64.86;100934.67;1758278;81;25758;-56
2022/02/21 01:30:08;;;;;;;19.77;9.63;;;;;;;0.60;64.76;100930.78;1758270;81;25812;-58
2022/02/21 01:32:35;;;;;;;22.70;11.22;;;;;;;0.61;64.90;100925.89;1758165;81;28345;-58
2022/02/21 01:35:04;;;;;;;21.42;10.80;;;;;;;0.61;64.90;100921.44;1755418;81;25788;-58
2022/02/21 01:37:32;;;;;;;20.85;10.72;;;;;;;0.59;64.73;100920.64;1736561;82;25714;-57
2022/02/21 01:39:58;;;;;;;21.40;11.83;;;;;;;0.57;64.67;100920.31;1735822;82;26471;-58
2022/02/21 01:42:25;;;;;;;20.77;11.08;;;;;;;0.55;64.71;100925.69;1735260;82;25637;-57
2022/02/21 01:44:52;;;;;;;19.17;11.15;;;;;;;0.53;64.68;100918.75;1738083;81;28363;-57
2022/02/21 01:47:22;;;;;;;18.45;9.98;;;;;;;0.51;64.83;100924.09;1763379;81;25837;-57
2022/02/21 01:49:51;;;;;;;28.67;10.75;;;;;;;0.49;64.80;100924.65;1764012;81;25781;-58
2022/02/21 01:52:20;;;;;;;17.52;10.75;;;;;;;0.46;64.68;100920.33;1763777;81;25765;-57
2022/02/21 01:54:47;;;;;;;27.48;11.12;;;;;;;0.46;64.68;100912.86;1763803;81;25780;-57
2022/02/21 01:57:14;;;;;;;24.20;10.93;;;;;;;0.42;64.72;100910.81;1763816;81;27417;-57
2022/02/21 01:59:41;;;;;;;19.48;9.58;;;;;;;0.40;64.78;100906.52;1763629;81;25686;-57
2022/02/21 02:02:09;;;;;;;20.55;10.53;;;;;;;0.38;64.77;100909.69;1763530;81;25733;-57
2022/02/21 02:04:37;;;;;;;22.82;11.28;;;;;;;0.34;64.53;100914.70;1763667;81;26628;-57
2022/02/21 02:07:06;;;;;;;18.35;9.90;;;;;;;0.28;64.63;100913.19;1763863;81;25805;-57
2022/02/21 02:09:36;;;;;;;31.00;11.53;;;;;;;0.21;64.70;100916.58;1745823;80;27891;-58
2022/02/21 02:12:06;;;;;;;20.95;10.25;;;;;;;0.19;64.71;100917.11;1740022;82;25713;-57
2022/02/21 02:14:42;;;;;;;22.48;11.30;;;;;;;0.18;64.73;100914.06;1739854;82;25607;-60
2022/02/21 02:17:15;;;;;;;19.17;10.90;;;;;;;0.13;64.58;100910.77;1739833;82;25785;-57
2022/02/21 02:19:45;;;;;;;21.90;11.00;;;;;;;0.08;64.83;100911.41;1738867;82;25562;-57
2022/02/21 02:22:22;;;;;;;25.30;11.30;;;;;;;0.08;65.02;100914.05;1739821;82;27475;-57
2022/02/21 02:24:52;;;;;;;22.10;11.70;;;;;;;0.09;65.04;100917.09;1746754;81;25746;-58
2022/02/21 02:27:22;;;;;;;18.87;10.32;;;;;;;0.11;65.15;100925.36;1758029;81;25707;-58
2022/02/21 02:29:52;;;;;;;24.45;12.03;;;;;;;0.09;65.02;100910.01;1758047;81;25749;-58
2022/02/21 02:32:22;;;;;;;25.50;10.88;;;;;;;0.09;65.00;100902.06;1749283;81;25517;-58
2022/02/21 02:34:52;;;;;;;26.15;10.72;;;;;;;0.08;65.00;100899.50;1739909;82;28172;-58
2022/02/21 02:37:25;;;;;;;25.15;10.85;;;;;;;0.04;64.80;100894.81;1739930;82;25659;-58
2022/02/21 02:39:53;;;;;;;19.10;10.55;;;;;;;0.01;64.89;100896.25;1740088;82;25695;-57
2022/02/21 02:42:21;;;;;;;21.07;10.55;;;;;;;0.01;64.82;100887.47;1739971;82;25881;-58
2022/02/21 02:44:48;;;;;;;17.48;10.55;;;;;;;-0.04;64.93;100888.52;1741006;81;25545;-58
2022/02/21 02:47:16;;;;;;;24.92;10.85;;;;;;;-0.04;65.08;100885.02;1732185;81;29601;-58
2022/02/21 02:49:43;;;;;;;24.47;10.48;;;;;;;-0.04;65.14;100877.09;1728848;83;25871;-58
2022/02/21 02:52:11;;;;;;;24.87;10.40;;;;;;;-0.05;65.11;100877.56;1729270;82;25820;-58
2022/02/21 02:54:38;;;;;;;22.48;9.85;;;;;;;-0.08;65.01;100874.16;1720197;82;25784;-59
2022/02/21 02:57:06;;;;;;;25.82;10.60;;;;;;;-0.10;65.03;100872.91;1710488;83;25769;-58
2022/02/21 02:59:33;;;;;;;28.90;10.93;;;;;;;-0.13;64.98;100884.93;1710295;83;27473;-57
2022/02/21 03:02:00;;;;;;;23.73;10.50;;;;;;;-0.14;65.07;100875.31;1701033;83;25805;-57
2022/02/21 03:04:27;;;;;;;18.55;9.90;;;;;;;-0.20;65.20;100872.45;1692545;84;25750;-58
2022/02/21 03:06:58;;;;;;;24.85;11.63;;;;;;;-0.22;65.23;100876.94;1696446;83;25802;-57
2022/02/21 03:09:22;;;;;;;23.47;11.38;;;;;;;-0.22;65.16;100874.73;1703898;84;25775;-58
2022/02/21 03:11:49;;;;;;;23.18;10.18;;;;;;;-0.25;65.19;100864.31;1702793;84;27480;-59
2022/02/21 03:14:16;;;;;;;25.52;10.72;;;;;;;-0.24;65.33;100864.23;1703923;84;25783;-58
2022/02/21 03:16:43;;;;;;;18.12;10.43;;;;;;;-0.21;65.39;100867.20;1704378;84;25771;-58
2022/02/21 03:19:10;;;;;;;25.08;9.80;;;;;;;-0.21;65.33;100868.53;1703538;84;26461;-58
2022/02/21 03:21:36;;;;;;;21.55;10.53;;;;;;;-0.21;65.33;100872.50;1704097;84;25691;-58
2022/02/21 03:24:06;;;;;;;25.35;10.13;;;;;;;-0.24;65.30;100872.17;1704066;84;27828;-58
2022/02/21 03:26:33;;;;;;;26.97;10.00;;;;;;;-0.25;65.14;100875.73;1704157;83;25739;-59
2022/02/21 03:29:00;;;;;;;21.95;10.15;;;;;;;-0.26;65.12;100873.16;1704054;84;25718;-58
2022/02/21 03:31:27;;;;;;;26.70;10.70;;;;;;;-0.35;64.87;100875.27;1704363;84;25801;-58
2022/02/21 03:33:54;;;;;;;20.70;9.93;;;;;;;-0.39;65.10;100876.78;1704140;84;25830;-59
2022/02/21 03:36:21;;;;;;;23.12;10.88;;;;;;;-0.41;65.08;100874.21;1704378;83;27427;-58
2022/02/21 03:38:47;;;;;;;22.95;10.88;;;;;;;-0.42;65.15;100873.81;1703807;84;25514;-59
2022/02/21 03:41:14;;;;;;;17.73;10.48;;;;;;;-0.42;65.16;100873.81;1697818;83;25788;-58
2022/02/21 03:43:41;;;;;;;21.00;10.72;;;;;;;-0.41;65.07;100866.73;1698080;84;26482;-59
2022/02/21 03:46:07;;;;;;;19.80;11.60;;;;;;;-0.39;65.16;100868.38;1672375;83;25849;-58
2022/02/21 03:48:35;;;;;;;41.73;13.22;;;;;;;-0.39;65.27;100858.28;1698381;84;28251;-59
2022/02/21 03:51:02;;;;;;;22.25;10.10;;;;;;;-0.43;64.99;100856.67;1676007;85;25719;-58
2022/02/21 03:53:29;;;;;;;21.05;9.60;;;;;;;-0.47;65.09;100857.27;1675698;85;25750;-59
2022/02/21 03:55:56;;;;;;;20.27;11.38;;;;;;;-0.46;65.38;100851.06;1675488;85;25819;-59
2022/02/21 04:02:29;;;;;;;23.47;10.65;;;;;;;-0.46;65.32;100841.80;1710700;82;27546;-58
2022/02/21 04:04:57;;;;;;;27.02;12.47;;;;;;;-0.50;65.35;100834.95;1730117;82;25833;-58
2022/02/21 04:07:24;;;;;;;19.82;10.70;;;;;;;-0.52;65.34;100830.18;1730281;82;25457;-57
2022/02/21 04:09:51;;;;;;;25.50;9.25;;;;;;;-0.53;65.51;100824.48;1730202;82;25804;-58
2022/02/21 04:12:18;;;;;;;20.55;9.83;;;;;;;-0.55;65.26;100825.89;1730168;82;25775;-58
2022/02/21 04:14:45;;;;;;;19.82;9.75;;;;;;;-0.59;65.25;100820.80;1729971;82;29597;-58
2022/02/21 04:17:13;;;;;;;17.37;10.30;;;;;;;-0.59;65.30;100818.15;1730118;82;25478;-57
2022/02/21 04:19:41;;;;;;;19.12;10.18;;;;;;;-0.61;65.26;100817.34;1728063;82;25671;-57
2022/02/21 04:22:11;;;;;;;21.87;8.88;;;;;;;-0.65;65.25;100817.45;1730182;82;25802;-58
2022/02/21 04:24:39;;;;;;;17.92;10.78;;;;;;;-0.66;65.15;100812.25;1732024;82;25868;-57
2022/02/21 04:27:08;;;;;;;20.82;9.85;;;;;;;-0.67;65.42;100817.98;1735169;82;27587;-58
2022/02/21 04:29:35;;;;;;;13.32;7.95;;;;;;;-0.68;65.46;100814.09;1699509;82;25717;-57
2022/02/21 04:32:07;;;;;;;20.52;12.53;;;;;;;-0.72;65.90;100807.23;1697732;84;25674;-57
2022/02/21 04:34:31;;;;;;;24.67;11.55;;;;;;;-0.86;65.34;100807.31;1684555;85;26442;-58
2022/02/21 04:36:58;;;;;;;22.52;10.88;;;;;;;-0.90;65.54;100814.10;1694967;84;26395;-58
2022/02/21 04:39:25;;;;;;;26.23;11.78;;;;;;;-0.90;65.86;100810.14;1694866;83;27559;-57
2022/02/21 04:41:52;;;;;;;17.62;10.05;;;;;;;-0.86;66.11;100802.03;1694982;83;25753;-57
2022/02/21 04:44:19;;;;;;;22.60;9.65;;;;;;;-0.82;66.04;100803.64;1667029;86;25593;-57
2022/02/21 04:46:48;;;;;;;26.12;12.07;;;;;;;-0.80;66.20;100799.60;1692763;83;25797;-57
2022/02/21 04:49:15;;;;;;;26.15;10.00;;;;;;;-0.76;66.30;100802.50;1684838;85;26139;-58
2022/02/21 04:51:42;;;;;;;22.32;9.50;;;;;;;-0.73;66.30;100798.42;1684728;85;27497;-58
2022/02/21 04:54:09;;;;;;;23.15;11.28;;;;;;;-0.75;66.24;100796.30;1694894;84;25468;-57
2022/02/21 04:56:36;;;;;;;32.53;12.63;;;;;;;-0.73;66.19;100794.94;1694903;84;25779;-60
2022/02/21 04:59:04;;;;;;;26.27;11.65;;;;;;;-0.70;66.33;100791.70;1684767;85;26511;-57
2022/02/21 05:01:31;;;;;;;32.58;13.98;;;;;;;-0.71;66.15;100801.87;1678274;84;25746;-60
2022/02/21 05:03:58;;;;;;;39.92;14.78;;;;;;;-0.73;65.85;100804.19;1708898;83;27534;-59
2022/02/21 05:06:24;;;;;;;36.42;14.25;;;;;;;-0.76;65.86;100796.37;1710211;83;25809;-57
2022/02/21 05:08:51;;;;;;;39.80;14.87;;;;;;;-0.81;65.67;100791.28;1710400;83;25493;-59
2022/02/21 05:11:18;;;;;;;39.88;16.62;;;;;;;-0.82;65.76;100789.11;1710454;83;26470;-57
2022/02/21 05:13:45;;;;;;;26.52;11.83;;;;;;;-0.82;65.72;100793.52;1720056;82;25835;-57
2022/02/21 05:16:11;;;;;;;27.22;11.43;;;;;;;-0.81;65.77;100791.28;1739818;82;27482;-56
2022/02/21 05:18:38;;;;;;;44.42;10.53;;;;;;;-0.82;65.81;100793.52;1739690;82;25793;-57
2022/02/21 05:21:05;;;;;;;19.12;10.10;;;;;;;-0.85;65.90;100788.38;1739566;82;25753;-57
2022/02/21 05:23:32;;;;;;;27.62;9.65;;;;;;;-0.83;66.00;100781.23;1739670;82;25802;-57
2022/02/21 05:25:59;;;;;;;33.98;11.97;;;;;;;-0.90;66.06;100778.45;1751308;81;25932;-57
2022/02/21 05:28:26;;;;;;;22.27;9.85;;;;;;;-0.90;66.95;100777.13;1752995;81;27638;-57
2022/02/21 05:30:54;;;;;;;27.27;11.05;;;;;;;-0.89;66.58;100779.69;1753028;81;25763;-58
2022/02/21 05:33:21;;;;;;;37.13;11.20;;;;;;;-0.84;67.30;100784.34;1752889;81;25734;-58
2022/02/21 05:35:48;;;;;;;57.30;23.98;;;;;;;-0.73;67.42;100787.86;1753079;81;25790;-57
2022/02/21 05:38:15;;;;;;;42.95;20.20;;;;;;;-0.64;67.05;100781.34;1752715;81;25765;-57
2022/02/21 05:40:42;;;;;;;47.60;13.35;;;;;;;-0.59;67.06;100787.28;1752835;81;27486;-58
2022/02/21 05:43:09;;;;;;;21.90;11.60;;;;;;;-0.54;66.85;100788.41;1752821;81;25658;-58
2022/02/21 05:45:36;;;;;;;22.10;11.63;;;;;;;-0.50;66.74;100784.26;1758441;81;25729;-58
2022/02/21 05:48:05;;;;;;;32.80;12.07;;;;;;;-0.48;66.59;100778.90;1768223;80;25717;-58
2022/02/21 05:50:31;;;;;;;23.95;10.40;;;;;;;-0.46;66.62;100769.13;1768309;81;25520;-58
2022/02/21 05:52:58;;;;;;;25.75;10.80;;;;;;;-0.44;66.47;100763.32;1768181;80;27519;-58
2022/02/21 05:55:25;;;;;;;23.15;10.93;;;;;;;-0.41;66.45;100763.64;1767948;81;27253;-58
2022/02/21 05:57:57;;;;;;;24.67;11.10;;;;;;;-0.40;66.32;100771.50;1768015;81;25713;-58
2022/02/21 06:00:26;;;;;;;24.65;12.20;;;;;;;-0.38;66.53;100765.69;1767706;81;26428;-58
2022/02/21 06:02:53;;;;;;;32.83;13.83;;;;;;;-0.33;66.62;100759.76;1767990;81;25879;-58
2022/02/21 06:05:21;;;;;;;35.23;15.43;;;;;;;-0.24;66.67;100757.16;1771131;81;27700;-58
2022/02/21 06:07:47;;;;;;;54.77;16.80;;;;;;;-0.16;66.70;100758.16;1770906;81;25748;-58
2022/02/21 06:10:15;;;;;;;46.45;16.42;;;;;;;-0.10;66.71;100753.91;1771095;81;25732;-58
2022/02/21 06:12:42;;;;;;;43.60;15.90;;;;;;;-0.01;66.71;100740.75;1771288;81;25895;-58
2022/02/21 06:15:10;;;;;;;50.92;15.28;;;;;;;0.08;66.71;100739.47;1771088;81;25693;-57
2022/02/21 06:17:38;;;;;;;40.03;17.75;;;;;;;0.13;66.68;100731.72;1771254;81;27509;-58
2022/02/21 06:20:07;;;;;;;55.85;16.97;;;;;;;0.27;66.74;100724.47;1771055;81;25764;-58
2022/02/21 06:22:34;;;;;;;28.30;12.03;;;;;;;0.50;66.85;100715.89;1771218;81;25780;-57
2022/02/21 06:25:01;;;;;;;33.02;13.60;;;;;;;0.66;66.59;100704.59;1765587;80;26594;-57
2022/02/21 06:27:28;;;;;;;25.57;10.63;;;;;;;0.70;66.52;100706.15;1758094;81;25615;-58
2022/02/21 06:29:55;;;;;;;19.82;10.63;;;;;;;0.69;67.11;100693.84;1758210;81;27483;-57
2022/02/21 06:32:22;;;;;;;22.62;10.85;;;;;;;0.70;66.89;100679.67;1756687;81;26428;-58
2022/02/21 06:34:51;;;;;;;29.48;12.13;;;;;;;0.72;66.74;100676.01;1735179;82;25765;-57
2022/02/21 06:37:19;;;;;;;21.45;10.43;;;;;;;0.73;66.85;100675.08;1735653;82;26845;-58
2022/02/21 06:39:46;;;;;;;23.98;11.10;;;;;;;0.76;66.81;100672.29;1735401;82;25457;-59
2022/02/21 06:42:13;;;;;;;30.92;11.83;;;;;;;0.83;66.89;100677.27;1735079;82;27450;-58
2022/02/21 06:44:39;;;;;;;29.42;14.35;;;;;;;0.88;66.84;100677.92;1734877;81;25802;-57
2022/02/21 06:47:07;;;;;;;30.77;13.22;;;;;;;0.95;67.01;100691.24;1758007;81;25504;-58
2022/02/21 06:49:34;;;;;;;25.35;11.03;;;;;;;1.01;67.14;100690.09;1758175;81;26524;-56
2022/02/21 06:52:01;;;;;;;29.32;11.08;;;;;;;1.07;67.05;100687.99;1758292;81;25661;-57
2022/02/21 06:54:28;;;;;;;20.72;10.68;;;;;;;1.12;66.89;100681.11;1758039;81;27453;-58
2022/02/21 06:56:54;;;;;;;19.02;10.45;;;;;;;1.19;67.00;100686.52;1750646;81;25758;-57
2022/02/21 06:59:21;;;;;;;20.12;10.70;;;;;;;1.27;67.12;100682.61;1737941;82;25684;-56
2022/02/21 07:01:48;;;;;;;18.87;9.60;;;;;;;1.39;67.32;100691.27;1740160;82;25794;-56
2022/02/21 07:04:15;;;;;;;24.77;10.63;;;;;;;1.48;67.19;100684.61;1732433;82;25928;-57
2022/02/21 07:06:42;;;;;;;24.18;9.78;;;;;;;1.56;67.54;100693.02;1730151;82;27473;-56
2022/02/21 07:09:08;;;;;;;20.15;10.50;;;;;;;1.61;67.46;100680.84;1730383;82;25775;-57
2022/02/21 07:11:35;;;;;;;23.98;10.30;;;;;;;1.69;67.22;100679.52;1730494;82;25728;-57
2022/02/21 07:14:02;;;;;;;31.97;11.38;;;;;;;1.79;67.11;100673.73;1730276;82;25834;-56
2022/02/21 07:16:31;;;;;;;23.20;10.50;;;;;;;1.87;67.02;100671.03;1730287;82;25770;-56
2022/02/21 07:18:58;;;;;;;57.38;16.67;;;;;;;1.96;67.05;100660.86;1730536;82;27544;-57
2022/02/21 07:21:25;;;;;;;40.75;13.10;;;;;;;2.05;66.94;100659.52;1730628;82;25459;-56
2022/02/21 07:23:53;;;;;;;33.50;13.50;;;;;;;2.16;67.01;100650.02;1730283;82;25810;-56
2022/02/21 07:26:20;;;;;;;27.62;14.35;;;;;;;2.27;67.05;100638.80;1735168;82;26531;-57
2022/02/21 07:28:48;;;;;;;32.42;13.22;;;;;;;2.38;67.19;100638.17;1735574;81;25839;-57
2022/02/21 07:31:15;;;;;;;24.10;11.12;;;;;;;2.52;67.26;100613.98;1735302;82;27625;-57
2022/02/21 07:33:41;;;;;;;30.08;12.55;;;;;;;2.67;67.32;100618.40;1735327;82;25746;-57
2022/02/21 07:36:08;;;;;;;30.43;10.78;;;;;;;2.81;67.22;100616.27;1735209;82;25484;-57
2022/02/21 07:38:35;;;;;;;27.50;10.90;;;;;;;2.93;66.96;100612.90;1735249;82;25786;-57
2022/02/21 07:41:03;;;;;;;29.80;11.08;;;;;;;3.06;66.53;100594.42;1708109;82;25813;-57
2022/02/21 07:43:29;;;;;;;29.80;10.70;;;;;;;3.21;66.27;100593.97;1704826;84;27453;-57
2022/02/21 07:45:56;;;;;;;25.90;10.38;;;;;;;3.36;66.16;100586.84;1742755;81;25868;-57
2022/02/21 07:48:23;;;;;;;18.45;10.15;;;;;;;3.53;66.13;100587.14;1768939;81;25724;-57
2022/02/21 07:50:54;;;;;;;28.67;11.90;;;;;;;3.71;65.79;100577.62;1768933;81;25825;-57
2022/02/21 07:53:19;;;;;;;33.78;11.85;;;;;;;3.90;65.54;100569.31;1768675;81;25732;-57
2022/02/21 07:55:47;;;;;;;34.10;11.50;;;;;;;4.10;65.11;100559.20;1769318;81;28407;-57
2022/02/21 07:58:14;;;;;;;33.90;11.70;;;;;;;4.26;65.08;100553.23;1769127;81;25812;-58
2022/02/21 08:00:41;;;;;;;25.15;11.20;;;;;;;4.50;64.88;100552.09;1768971;81;25730;-58
2022/02/21 08:03:09;;;;;;;27.87;11.70;;;;;;;4.77;64.52;100555.69;1765629;81;25931;-57
2022/02/21 08:05:36;;;;;;;32.90;11.18;;;;;;;4.99;64.39;100551.91;1752993;81;25480;-57
2022/02/21 08:08:03;;;;;;;30.08;12.40;;;;;;;5.20;63.99;100553.22;1752872;81;27462;-58
2022/02/21 08:10:30;;;;;;;35.35;12.78;;;;;;;5.36;63.82;100556.52;1753105;81;25765;-57
2022/02/21 08:12:57;;;;;;;37.42;15.95;;;;;;;5.55;63.59;100553.39;1753112;81;26329;-57
2022/02/21 08:15:24;;;;;;;41.05;13.28;;;;;;;5.76;61.30;100562.17;1753282;81;25762;-57
2022/02/21 08:17:51;;;;;;;35.73;10.45;;;;;;;5.99;59.33;100562.31;1752858;81;25777;-57
2022/02/21 08:20:22;;;;;;;11.30;4.80;;;;;;;6.23;57.27;100560.53;1753113;81;27434;-57
2022/02/21 08:22:51;;;;;;;16.00;4.45;;;;;;;6.64;50.92;100563.75;1752748;81;25790;-57
2022/02/21 08:25:19;;;;;;;18.48;4.70;;;;;;;7.08;48.97;100557.83;1753161;81;25523;-57
2022/02/21 08:27:46;;;;;;;13.40;3.95;;;;;;;7.38;48.01;100548.35;1752952;81;25833;-57
2022/02/21 08:30:20;;;;;;;14.33;4.60;;;;;;;7.63;46.95;100550.78;1753377;81;25831;-58
2022/02/21 08:32:47;;;;;;;15.30;4.50;;;;;;;7.90;47.80;100547.36;1753196;81;33078;-56
2022/02/21 08:35:15;;;;;;;12.25;4.95;;;;;;;8.19;45.89;100550.83;1753274;81;25878;-57
2022/02/21 08:37:43;;;;;;;7.92;4.10;;;;;;;8.43;44.90;100568.89;1752848;81;25691;-57
2022/02/21 08:40:14;;;;;;;10.60;4.87;;;;;;;8.70;43.27;100551.98;1752929;81;25841;-57
2022/02/21 08:42:42;;;;;;;10.45;4.00;;;;;;;8.90;43.59;100538.24;1753114;81;25484;-58
2022/02/21 08:45:11;;;;;;;12.33;4.30;;;;;;;9.03;42.30;100548.27;1755103;80;28151;-58
2022/02/21 08:47:39;;;;;;;12.28;5.08;;;;;;;9.13;42.54;100551.03;1765943;81;25808;-57
2022/02/21 08:50:10;;;;;;;14.80;5.22;;;;;;;9.17;42.16;100529.64;1765722;81;25741;-57
2022/02/21 08:52:40;;;;;;;15.53;4.83;;;;;;;9.28;41.78;100531.87;1766023;81;25807;-57
2022/02/21 08:55:11;;;;;;;16.90;4.83;;;;;;;9.44;42.46;100513.95;1765953;81;25804;-57
2022/02/21 08:57:38;;;;;;;10.95;4.78;;;;;;;9.62;42.29;100510.11;1765530;81;27442;-57
2022/02/21 09:00:08;;;;;;;12.30;5.70;;;;;;;9.78;41.77;100509.09;1765742;81;25688;-57
2022/02/21 09:02:36;;;;;;;13.68;4.42;;;;;;;9.96;40.24;100503.91;1766021;80;25722;-57
2022/02/21 09:05:04;;;;;;;16.05;5.83;;;;;;;10.14;40.43;100495.16;1763758;81;25953;-57
2022/02/21 09:07:31;;;;;;;18.42;6.35;;;;;;;10.31;40.15;100493.12;1763692;81;25908;-57
2022/02/21 09:09:59;;;;;;;8.03;4.78;;;;;;;10.48;39.56;100512.25;1763425;81;27480;-57
2022/02/21 09:12:26;;;;;;;17.23;6.97;;;;;;;10.67;38.47;100486.33;1763521;80;25812;-57
2022/02/21 09:14:56;;;;;;;14.65;5.97;;;;;;;10.82;38.78;100475.46;1763475;81;25488;-57
2022/02/21 09:17:21;;;;;;;27.87;6.97;;;;;;;10.98;38.72;100470.83;1763626;80;26457;-57
2022/02/21 09:19:48;;;;;;;15.95;5.90;;;;;;;11.24;37.99;100462.08;1763577;81;25707;-57
2022/02/21 09:22:16;;;;;;;15.68;6.55;;;;;;;11.52;36.72;100466.97;1763950;81;28146;-57
2022/02/21 09:24:43;;;;;;;21.27;6.70;;;;;;;11.98;37.03;100445.94;1752574;81;25711;-58
2022/02/21 09:27:10;;;;;;;14.28;6.25;;;;;;;12.92;35.45;100454.45;1729874;82;25535;-56
2022/02/21 09:29:37;;;;;;;15.80;6.85;;;;;;;13.77;34.87;100438.28;1729834;82;25713;-57
2022/02/21 09:32:05;;;;;;;15.60;7.00;;;;;;;14.53;32.26;100425.98;1730265;82;25882;-57
2022/02/21 09:34:32;;;;;;;16.25;6.42;;;;;;;15.32;31.00;100428.55;1729700;82;27508;-57
2022/02/21 09:36:59;;;;;;;15.00;5.87;;;;;;;15.89;30.20;100423.85;1729780;82;25989;-58
2022/02/21 09:39:26;;;;;;;16.87;6.83;;;;;;;16.39;29.45;100410.25;1729765;82;25759;-58
2022/02/21 09:41:54;;;;;;;47.13;9.35;;;;;;;16.85;29.69;100397.06;1730085;82;25817;-58
2022/02/21 09:44:22;;;;;;;15.05;6.87;;;;;;;17.48;29.17;100396.66;1729736;82;25964;-58
2022/02/21 09:46:49;;;;;;;11.28;5.95;;;;;;;18.02;27.43;100390.99;1759708;81;27494;-58
2022/02/21 09:49:18;;;;;;;22.82;6.03;;;;;;;18.30;25.52;100387.77;1724574;83;25740;-58
2022/02/21 09:51:46;;;;;;;13.28;6.55;;;;;;;18.37;26.32;100368.77;1695798;84;25768;-58
2022/02/21 09:54:14;;;;;;;10.10;4.90;;;;;;;18.72;26.07;100373.42;1724572;83;25812;-58
2022/02/21 09:56:42;;;;;;;12.03;5.83;;;;;;;18.68;24.57;100372.98;1706664;84;25752;-58
2022/02/21 09:59:11;;;;;;;18.57;6.22;;;;;;;18.52;24.83;100356.42;1706841;84;28311;-59
2022/02/21 10:01:38;;;;;;;13.85;5.83;;;;;;;18.25;26.94;100345.83;1706582;84;25841;-57
2022/02/21 10:04:06;;;;;;;16.48;5.33;;;;;;;18.61;26.50;100341.60;1707374;84;25666;-58
2022/02/21 10:06:34;;;;;;;19.95;5.55;;;;;;;19.14;24.67;100341.59;1712990;83;25790;-57
2022/02/21 10:09:10;;;;;;;14.85;4.95;;;;;;;19.75;24.68;100329.48;1726961;83;25733;-58
2022/02/21 10:11:46;;;;;;;14.85;4.83;;;;;;;20.17;25.16;100315.97;1697080;84;27390;-58
2022/02/21 10:14:23;;;;;;;10.28;5.62;;;;;;;20.40;25.68;100311.11;1726146;82;25831;-59
2022/02/21 10:16:57;;;;;;;21.25;4.70;;;;;;;21.12;23.55;100315.23;1708657;84;25729;-57
2022/02/21 10:19:35;;;;;;;8.18;4.50;;;;;;;21.48;24.36;100301.47;1708763;84;25784;-58
2022/02/21 10:22:10;;;;;;;12.58;4.10;;;;;;;22.02;24.57;100291.53;1708458;83;25667;-58
2022/02/21 10:24:47;;;;;;;15.48;5.25;;;;;;;22.55;22.31;100290.22;1663251;83;27625;-58
2022/02/21 10:27:24;;;;;;;8.15;4.33;;;;;;;22.83;22.65;100286.11;1683354;85;25696;-58
2022/02/21 10:30:00;;;;;;;10.28;3.45;;;;;;;23.35;22.03;100281.56;1683472;85;25785;-58
2022/02/21 10:32:36;;;;;;;10.80;3.83;;;;;;;23.63;21.57;100286.92;1683409;85;26497;-58
2022/02/21 10:35:22;;;;;;;8.13;3.08;;;;;;;23.87;21.08;100279.58;1680046;85;25802;-58
2022/02/21 10:37:55;;;;;;;10.75;4.28;;;;;;;23.89;20.35;100274.69;1679151;85;27533;-58
2022/02/21 10:40:36;;;;;;;8.70;3.33;;;;;;;24.05;21.18;100271.81;1679149;85;25700;-58
2022/02/21 10:43:17;;;;;;;4.58;2.83;;;;;;;24.21;19.99;100279.04;1679117;85;25839;-58
2022/02/21 10:45:48;;;;;;;9.23;3.35;;;;;;;24.21;19.89;100268.88;1679514;83;25771;-58
2022/02/21 10:48:20;;;;;;;9.53;3.47;;;;;;;24.45;18.88;100281.77;1679198;85;25703;-58
2022/02/21 10:51:00;;;;;;;9.40;2.83;;;;;;;24.53;19.04;100267.13;1679671;85;27664;-58
2022/02/21 10:53:48;;;;;;;6.85;3.30;;;;;;;24.63;19.91;100262.38;1679041;85;25814;-58
2022/02/21 10:56:16;;;;;;;6.10;2.87;;;;;;;24.46;18.95;100269.70;1679255;85;25831;-58
2022/02/21 10:58:43;;;;;;;7.20;2.87;;;;;;;24.87;18.46;100249.98;1679019;85;25827;-58
2022/02/21 11:01:10;;;;;;;14.07;4.37;;;;;;;24.78;18.81;100255.02;1679473;85;25747;-59
2022/02/21 11:03:39;;;;;;;6.53;2.72;;;;;;;25.15;18.59;100238.14;1677053;85;28198;-58
2022/02/21 11:06:05;;;;;;;5.85;2.30;;;;;;;25.42;17.31;100238.93;1676814;85;25698;-58
2022/02/21 11:08:33;;;;;;;4.70;2.80;;;;;;;25.37;17.19;100235.21;1677075;85;25657;-59
2022/02/21 11:11:06;;;;;;;9.28;3.12;;;;;;;25.30;17.05;100237.59;1677159;85;26432;-59
2022/02/21 11:13:34;;;;;;;;;;;;;;;25.23;18.04;100216.80;1679006;85;25798;-59
2022/02/21 11:16:02;;;;;;;9.58;3.33;;;;;;;25.51;17.55;100213.18;1678661;85;28224;-59
2022/02/21 11:18:29;;;;;;;6.03;3.27;;;;;;;25.41;17.42;100212.47;1678733;84;25727;-59
2022/02/21 11:20:57;;;;;;;7.17;3.10;;;;;;;25.46;17.36;100211.17;1679497;85;25535;-59
2022/02/21 11:23:27;;;;;;;5.85;3.40;;;;;;;25.50;17.66;100199.14;1678958;85;26208;-58
2022/02/21 11:26:08;;;;;;;8.90;2.98;;;;;;;25.62;16.89;100205.39;1694954;84;25495;-58